createdAt,value
2019-03-17T00:01:41.344Z,3.70
2019-03-17T00:04:49.973Z,3.13
2019-03-17T00:07:58.694Z,3.10
2019-03-17T00:11:07.346Z,3.77
2019-03-17T00:14:15.951Z,3.60
2019-03-17T00:17:25.235Z,3.27
2019-03-17T00:20:44.426Z,3.20
2019-03-17T00:23:53.232Z,4.30
2019-03-17T00:27:02.036Z,3.77
2019-03-17T00:30:21.379Z,3.87
2019-03-17T00:33:31.091Z,4.30
2019-03-17T00:36:39.479Z,4.37
2019-03-17T00:39:58.316Z,4.33
2019-03-17T00:43:06.857Z,4.50
2019-03-17T00:46:15.560Z,4.60
2019-03-17T00:49:24.161Z,4.50
2019-03-17T00:52:32.801Z,4.83
2019-03-17T00:55:41.532Z,4.30
2019-03-17T00:58:50.149Z,4.17
2019-03-17T01:02:08.929Z,4.47
2019-03-17T01:05:17.599Z,4.30
2019-03-17T01:08:26.222Z,4.57
2019-03-17T01:11:35.072Z,4.83
2019-03-17T01:14:43.775Z,4.37
2019-03-17T01:17:52.472Z,4.67
2019-03-17T01:21:01.088Z,5.10
2019-03-17T01:24:10.467Z,5.63
2019-03-17T01:27:19.230Z,4.60
2019-03-17T01:30:27.835Z,5.50
2019-03-17T01:33:36.454Z,4.67
2019-03-17T01:36:43.675Z,4.80
2019-03-17T01:39:52.380Z,4.73
2019-03-17T01:43:00.995Z,4.87
2019-03-17T01:46:09.691Z,4.53
2019-03-17T01:49:18.313Z,4.70
2019-03-17T01:52:37.065Z,4.37
2019-03-17T01:55:45.768Z,4.90
2019-03-17T01:58:54.359Z,4.90
2019-03-17T02:02:03.068Z,4.97
2019-03-17T02:05:21.216Z,5.07
2019-03-17T02:08:22.082Z,4.80
2019-03-17T02:11:30.676Z,4.93
2019-03-17T02:14:39.326Z,4.90
2019-03-17T02:17:47.937Z,4.87
2019-03-17T02:21:06.817Z,4.70
2019-03-17T02:24:15.435Z,5.30
2019-03-17T02:27:24.146Z,4.67
2019-03-17T02:30:32.670Z,4.87
2019-03-17T02:33:41.291Z,4.73
2019-03-17T02:36:49.969Z,5.03
2019-03-17T02:39:58.580Z,5.07
2019-03-17T02:43:17.381Z,5.00
2019-03-17T02:46:26.063Z,5.57
2019-03-17T02:49:34.577Z,4.53
2019-03-17T02:52:43.077Z,4.73
2019-03-17T02:55:51.739Z,5.10
2019-03-17T02:59:00.368Z,4.27
2019-03-17T03:02:19.162Z,4.63
2019-03-17T03:05:27.649Z,4.60
2019-03-17T03:08:36.264Z,4.70
2019-03-17T03:11:44.904Z,5.40
2019-03-17T03:14:53.541Z,4.90
2019-03-17T03:18:02.223Z,5.23
2019-03-17T03:21:20.886Z,4.83
2019-03-17T03:24:29.896Z,4.67
2019-03-17T03:27:38.607Z,4.97
2019-03-17T03:30:47.237Z,4.83
2019-03-17T03:33:54.349Z,4.83
2019-03-17T03:37:03.093Z,4.97
2019-03-17T03:40:11.943Z,5.17
2019-03-17T03:43:20.540Z,4.90
2019-03-17T03:46:29.292Z,5.13
2019-03-17T03:49:37.890Z,5.00
2019-03-17T03:52:46.579Z,4.80
2019-03-17T03:55:55.320Z,5.30
2019-03-17T03:59:04.034Z,4.67
2019-03-17T04:02:12.642Z,5.37
2019-03-17T04:05:32.945Z,5.53
2019-03-17T04:08:41.675Z,5.23
2019-03-17T04:11:51.960Z,5.30
2019-03-17T04:15:00.726Z,5.60
2019-03-17T04:18:09.579Z,5.57
2019-03-17T04:21:18.223Z,5.50
2019-03-17T04:24:27.059Z,5.03
2019-03-17T04:27:35.613Z,4.90
2019-03-17T04:30:44.317Z,4.77
2019-03-17T04:33:53.077Z,4.33
2019-03-17T04:37:01.750Z,5.10
2019-03-17T04:40:09.758Z,4.20
2019-03-17T04:43:18.266Z,4.10
2019-03-17T04:46:27.000Z,4.03
2019-03-17T04:49:35.633Z,4.03
2019-03-17T04:52:44.233Z,3.70
2019-03-17T04:55:52.939Z,3.43
2019-03-17T04:59:01.707Z,3.67
2019-03-17T05:02:13.371Z,3.70
2019-03-17T05:05:20.801Z,3.07
2019-03-17T05:08:39.652Z,3.20
2019-03-17T05:11:48.239Z,3.30
2019-03-17T05:14:56.883Z,3.57
2019-03-17T05:18:04.085Z,2.97
2019-03-17T05:21:12.665Z,3.37
2019-03-17T05:24:21.273Z,3.60
2019-03-17T05:27:30.009Z,3.57
2019-03-17T05:30:38.652Z,3.50
2019-03-17T05:33:47.275Z,3.60
2019-03-17T05:37:07.056Z,3.60
2019-03-17T05:40:15.772Z,3.53
2019-03-17T05:43:24.443Z,3.70
2019-03-17T05:46:33.060Z,3.60
2019-03-17T05:49:51.917Z,3.80
2019-03-17T05:53:00.501Z,3.50
2019-03-17T05:56:09.203Z,3.53
2019-03-17T05:59:19.781Z,3.10
2019-03-17T06:02:28.527Z,3.33
2019-03-17T06:05:37.222Z,4.10
2019-03-17T06:08:45.846Z,3.33
2019-03-17T06:11:54.425Z,3.07
2019-03-17T06:15:03.056Z,3.13
2019-03-17T06:18:11.636Z,2.90
2019-03-17T06:21:30.464Z,3.00
2019-03-17T06:24:38.972Z,3.47
2019-03-17T06:27:47.660Z,3.37
2019-03-17T06:30:56.261Z,3.63
2019-03-17T06:34:04.870Z,3.00
2019-03-17T06:37:13.567Z,3.40
2019-03-17T06:40:22.190Z,3.80
2019-03-17T06:43:41.038Z,3.40
2019-03-17T06:46:49.694Z,3.40
2019-03-17T06:49:58.187Z,3.10
2019-03-17T06:53:06.763Z,2.00
2019-03-17T06:56:15.456Z,1.27
2019-03-17T06:59:23.927Z,0.97
2019-03-17T07:02:42.828Z,0.73
2019-03-17T07:05:51.462Z,0.73
2019-03-17T07:08:59.931Z,0.80
2019-03-17T07:12:08.515Z,1.20
2019-03-17T07:15:17.121Z,1.30
2019-03-17T07:18:35.731Z,1.20
2019-03-17T07:21:44.398Z,0.80
2019-03-17T07:24:52.967Z,1.00
2019-03-17T07:28:01.650Z,1.10
2019-03-17T07:31:10.137Z,1.17
2019-03-17T07:34:18.701Z,1.23
2019-03-17T07:37:37.575Z,1.07
2019-03-17T07:40:46.197Z,0.80
2019-03-17T07:43:54.662Z,0.70
2019-03-17T07:47:03.328Z,1.00
2019-03-17T07:50:12.154Z,0.97
2019-03-17T07:53:20.881Z,1.00
2019-03-17T07:56:29.517Z,0.90
2019-03-17T07:59:37.991Z,0.80
2019-03-17T08:02:58.131Z,1.17
2019-03-17T08:06:06.889Z,1.10
2019-03-17T08:09:15.548Z,1.57
2019-03-17T08:12:24.200Z,1.47
2019-03-17T08:15:32.887Z,0.90
2019-03-17T08:18:41.515Z,1.30
2019-03-17T08:21:50.144Z,0.80
2019-03-17T08:25:09.526Z,0.80
2019-03-17T08:28:28.162Z,0.70
2019-03-17T08:31:38.167Z,1.00
2019-03-17T08:34:46.650Z,0.93
2019-03-17T08:37:55.308Z,1.10
2019-03-17T08:41:03.953Z,1.03
2019-03-17T08:44:22.814Z,1.20
2019-03-17T08:47:32.132Z,1.20
2019-03-17T08:50:50.902Z,0.87
2019-03-17T08:54:00.514Z,0.87
2019-03-17T08:57:09.134Z,0.90
2019-03-17T09:00:27.894Z,1.20
2019-03-17T09:03:36.517Z,1.20
2019-03-17T09:06:45.145Z,1.07
2019-03-17T09:09:53.751Z,1.30
2019-03-17T09:13:04.295Z,1.10
2019-03-17T09:16:12.658Z,1.70
2019-03-17T09:19:21.379Z,1.20
2019-03-17T09:22:30.008Z,1.57
2019-03-17T09:25:48.882Z,1.30
2019-03-17T09:28:57.411Z,1.50
2019-03-17T09:32:05.916Z,1.33
2019-03-17T09:35:13.582Z,1.17
2019-03-17T09:38:22.198Z,1.43
2019-03-17T09:41:30.967Z,1.53
2019-03-17T09:44:39.685Z,1.33
2019-03-17T09:48:26.527Z,1.70
2019-03-17T09:51:35.035Z,1.50
2019-03-17T09:54:53.602Z,1.30
2019-03-17T09:58:02.260Z,1.43
2019-03-17T10:01:10.870Z,1.37
2019-03-17T10:04:19.539Z,1.53
2019-03-17T10:07:28.148Z,1.20
2019-03-17T10:10:37.844Z,1.60
2019-03-17T10:13:47.479Z,1.40
2019-03-17T10:16:57.422Z,1.33
2019-03-17T10:20:05.312Z,1.57
2019-03-17T10:23:13.784Z,1.73
2019-03-17T10:26:22.526Z,2.17
2019-03-17T10:29:31.613Z,1.40
2019-03-17T10:32:40.125Z,1.03
2019-03-17T10:35:48.693Z,1.47
2019-03-17T10:39:12.578Z,1.30
2019-03-17T10:42:18.488Z,1.37
2019-03-17T10:45:27.249Z,1.33
2019-03-17T10:48:47.002Z,1.20
2019-03-17T10:52:25.101Z,1.43
2019-03-17T10:55:48.346Z,1.03
2019-03-17T11:03:21.712Z,1.40
2019-03-17T11:07:31.595Z,1.50
2019-03-17T11:11:12.887Z,1.13
2019-03-17T11:14:54.078Z,1.60
2019-03-17T11:18:53.636Z,1.33
2019-03-17T11:22:45.193Z,1.33
2019-03-17T11:25:59.215Z,1.10
2019-03-17T11:29:13.203Z,1.27
2019-03-17T11:32:24.164Z,1.40
2019-03-17T11:35:35.174Z,1.30
2019-03-17T11:38:48.255Z,1.30
2019-03-17T11:42:02.383Z,1.10
2019-03-17T11:45:15.207Z,1.70
2019-03-17T11:48:28.929Z,1.30
2019-03-17T11:51:44.146Z,1.03
2019-03-17T11:54:55.355Z,1.43
2019-03-17T11:58:06.235Z,1.27
2019-03-17T12:01:17.886Z,1.20
2019-03-17T12:04:28.943Z,1.43
2019-03-17T12:07:58.462Z,0.80
2019-03-17T12:11:14.736Z,1.10
2019-03-17T12:14:23.424Z,1.47
2019-03-17T12:17:32.053Z,1.30
2019-03-17T12:20:50.789Z,1.30
2019-03-17T12:23:59.412Z,1.10
2019-03-17T12:27:07.932Z,1.30
2019-03-17T12:30:21.633Z,1.20
2019-03-17T12:33:30.151Z,1.20
2019-03-17T12:36:38.656Z,1.60
2019-03-17T12:39:47.169Z,1.10
2019-03-17T12:43:06.120Z,1.50
2019-03-17T12:46:14.812Z,1.53
2019-03-17T12:49:23.422Z,1.40
2019-03-17T12:52:32.079Z,1.13
2019-03-17T12:55:40.637Z,1.57
2019-03-17T12:58:49.168Z,1.00
2019-03-17T13:02:07.899Z,1.10
2019-03-17T13:05:16.539Z,1.20
2019-03-17T13:08:25.173Z,1.10
2019-03-17T13:11:33.648Z,0.77
2019-03-17T13:14:42.194Z,0.83
2019-03-17T13:18:07.099Z,0.90
2019-03-17T13:21:15.730Z,1.00
2019-03-17T13:24:24.272Z,1.20
2019-03-17T13:27:32.768Z,0.80
2019-03-17T13:30:41.266Z,0.83
2019-03-17T13:34:00.955Z,1.07
2019-03-17T13:37:09.643Z,0.90
2019-03-17T13:40:28.349Z,0.80
2019-03-17T13:43:28.395Z,1.10
2019-03-17T13:46:47.433Z,1.27
2019-03-17T13:49:55.919Z,0.97
2019-03-17T13:53:04.416Z,1.17
2019-03-17T13:56:13.003Z,0.83
2019-03-17T13:59:21.498Z,0.93
2019-03-17T14:02:40.288Z,1.07
2019-03-17T14:05:49.028Z,0.83
2019-03-17T14:08:57.572Z,0.80
2019-03-17T14:12:06.072Z,0.90
2019-03-17T14:15:15.290Z,1.00
2019-03-17T14:18:23.840Z,0.60
2019-03-17T14:21:32.409Z,0.80
2019-03-17T14:24:40.875Z,0.90
2019-03-17T14:27:59.749Z,0.77
2019-03-17T14:31:08.249Z,1.00
2019-03-17T14:34:16.724Z,0.93
2019-03-17T14:37:25.406Z,0.83
2019-03-17T14:40:34.070Z,1.07
2019-03-17T14:43:42.603Z,0.80
2019-03-17T14:47:01.386Z,0.77
2019-03-17T14:50:13.171Z,1.27
2019-03-17T14:53:21.663Z,0.90
2019-03-17T14:56:30.239Z,1.10
2019-03-17T14:59:38.720Z,0.80
2019-03-17T15:02:57.509Z,1.00
2019-03-17T15:06:06.102Z,0.70
2019-03-17T15:09:14.698Z,0.70
2019-03-17T15:12:23.327Z,0.70
2019-03-17T15:15:32.065Z,0.80
2019-03-17T15:18:40.580Z,0.97
2019-03-17T15:21:59.261Z,1.23
2019-03-17T15:25:08.799Z,1.20
2019-03-17T15:28:17.287Z,1.13
2019-03-17T15:31:36.184Z,1.10
2019-03-17T15:34:48.410Z,1.10
2019-03-17T15:37:56.970Z,1.20
2019-03-17T15:41:17.596Z,1.17
2019-03-17T15:44:15.621Z,1.60
2019-03-17T15:47:24.175Z,1.47
2019-03-17T15:50:32.659Z,1.40
2019-03-17T15:53:51.723Z,1.10
2019-03-17T15:57:00.527Z,1.10
2019-03-17T16:00:24.674Z,1.33
2019-03-17T16:03:36.539Z,1.30
2019-03-17T16:06:45.185Z,1.00
2019-03-17T16:09:53.666Z,1.10
2019-03-17T16:13:02.192Z,1.73
2019-03-17T16:16:10.830Z,1.80
2019-03-17T16:19:29.488Z,1.00
2019-03-17T16:22:38.242Z,1.10
2019-03-17T16:25:46.858Z,1.17
2019-03-17T16:28:55.349Z,0.93
2019-03-17T16:32:03.820Z,1.13
2019-03-17T16:35:12.682Z,1.00
2019-03-17T16:38:21.546Z,1.33
2019-03-17T16:41:42.577Z,1.43
2019-03-17T16:44:41.436Z,1.50
2019-03-17T16:47:49.985Z,1.20
2019-03-17T16:50:59.703Z,1.37
2019-03-17T16:54:28.148Z,1.10
2019-03-17T16:57:44.682Z,1.30
2019-03-17T17:01:03.263Z,1.37
2019-03-17T17:04:23.359Z,1.20
2019-03-17T17:07:41.435Z,1.40
2019-03-17T17:10:56.179Z,1.40
2019-03-17T17:14:07.334Z,1.57
2019-03-17T17:17:15.972Z,1.40
2019-03-17T17:20:30.162Z,1.30
2019-03-17T17:23:38.621Z,1.30
2019-03-17T17:26:47.216Z,1.00
2019-03-17T17:29:55.731Z,1.27
2019-03-17T17:33:12.090Z,1.17
2019-03-17T17:36:25.117Z,1.27
2019-03-17T17:39:36.740Z,1.40
2019-03-17T17:42:48.171Z,1.30
2019-03-17T17:45:58.935Z,1.10
2019-03-17T17:49:09.312Z,1.40
2019-03-17T17:52:18.173Z,1.40
2019-03-17T17:55:35.027Z,1.30
2019-03-17T17:58:44.195Z,1.37
2019-03-17T18:01:52.979Z,1.10
2019-03-17T18:05:05.016Z,1.70
2019-03-17T18:08:13.527Z,1.10
2019-03-17T18:11:22.037Z,1.43
2019-03-17T18:14:30.506Z,1.30
2019-03-17T18:17:38.991Z,1.63
2019-03-17T18:20:57.677Z,1.80
2019-03-17T18:24:06.145Z,1.73
2019-03-17T18:27:14.639Z,1.47
2019-03-17T18:30:23.128Z,1.60
2019-03-17T18:33:42.008Z,1.60
2019-03-17T18:36:50.518Z,1.43
2019-03-17T18:39:59.053Z,1.87
2019-03-17T18:43:07.539Z,1.67
2019-03-17T18:46:16.028Z,1.40
2019-03-17T18:49:34.814Z,1.30
2019-03-17T18:52:43.420Z,1.10
2019-03-17T18:55:51.952Z,1.13
2019-03-17T18:59:00.588Z,1.50
2019-03-17T19:02:09.194Z,1.20
2019-03-17T19:05:19.926Z,1.10
2019-03-17T19:08:38.117Z,1.30
2019-03-17T19:11:46.699Z,1.33
2019-03-17T19:14:55.210Z,1.43
2019-03-17T19:18:08.331Z,1.40
2019-03-17T19:21:27.190Z,1.50
2019-03-17T19:24:35.866Z,1.70
2019-03-17T19:27:44.372Z,1.50
2019-03-17T19:30:52.841Z,1.47
2019-03-17T19:34:01.323Z,1.43
2019-03-17T19:37:20.068Z,1.57
2019-03-17T19:40:28.821Z,1.70
2019-03-17T19:43:37.427Z,1.47
2019-03-17T19:46:45.907Z,1.50
2019-03-17T19:49:54.507Z,1.20
2019-03-17T19:53:03.150Z,1.57
2019-03-17T19:56:21.812Z,1.20
2019-03-17T19:59:30.341Z,1.30
2019-03-17T20:02:38.809Z,1.37
2019-03-17T20:05:47.527Z,1.40
2019-03-17T20:08:56.100Z,1.30
2019-03-17T20:12:14.946Z,1.57
2019-03-17T20:15:23.477Z,1.53
2019-03-17T20:18:32.091Z,1.60
2019-03-17T20:21:40.765Z,1.20
2019-03-17T20:24:49.285Z,1.30
2019-03-17T20:27:57.791Z,1.53
2019-03-17T20:31:16.518Z,1.70
2019-03-17T20:34:25.004Z,1.40
2019-03-17T20:37:33.487Z,1.80
2019-03-17T20:40:42.374Z,1.43
2019-03-17T20:43:50.831Z,2.20
2019-03-17T20:47:09.508Z,1.60
2019-03-17T20:50:18.030Z,1.27
2019-03-17T20:53:26.499Z,1.70
2019-03-17T20:56:35.026Z,1.77
2019-03-17T20:59:43.577Z,2.10
2019-03-17T21:03:02.435Z,1.53
2019-03-17T21:06:11.035Z,1.77
2019-03-17T21:09:19.498Z,2.13
2019-03-17T21:12:27.986Z,1.50
2019-03-17T21:15:37.021Z,1.80
2019-03-17T21:18:45.551Z,1.73
2019-03-17T21:21:52.620Z,1.73
2019-03-17T21:25:11.856Z,1.33
2019-03-17T21:28:30.899Z,1.87
2019-03-17T21:31:39.668Z,1.53
2019-03-17T21:34:48.130Z,2.00
2019-03-17T21:37:56.626Z,1.50
2019-03-17T21:41:07.160Z,1.70
2019-03-17T21:44:15.396Z,1.87
2019-03-17T21:47:34.205Z,1.43
2019-03-17T21:50:42.793Z,1.50
2019-03-17T21:53:51.367Z,1.40
2019-03-17T21:56:59.861Z,1.60
2019-03-17T22:00:10.663Z,2.10
2019-03-17T22:03:22.089Z,1.90
2019-03-17T22:06:40.777Z,1.50
2019-03-17T22:09:49.512Z,1.80
2019-03-17T22:12:58.084Z,1.57
2019-03-17T22:16:06.610Z,2.07
2019-03-17T22:19:15.076Z,1.70
2019-03-17T22:22:23.574Z,2.10
2019-03-17T22:25:42.455Z,1.80
2019-03-17T22:28:50.943Z,1.63
2019-03-17T22:31:59.436Z,1.77
2019-03-17T22:35:08.623Z,1.40
2019-03-17T22:38:17.106Z,1.87
2019-03-17T22:41:25.570Z,2.33
2019-03-17T22:44:44.249Z,1.47
2019-03-17T22:47:52.830Z,1.50
2019-03-17T22:51:01.413Z,1.60
2019-03-17T22:54:10.019Z,1.53
2019-03-17T22:57:18.485Z,1.70
2019-03-17T23:00:42.755Z,1.50
2019-03-17T23:03:51.380Z,1.40
2019-03-17T23:07:10.146Z,2.03
2019-03-17T23:10:18.747Z,1.50
2019-03-17T23:13:27.255Z,2.00
2019-03-17T23:16:35.772Z,1.70
2019-03-17T23:19:44.271Z,1.60
2019-03-17T23:23:03.123Z,1.90
2019-03-17T23:26:11.718Z,1.50
2019-03-17T23:29:20.319Z,1.73
2019-03-17T23:32:28.861Z,2.03
2019-03-17T23:35:37.465Z,1.77
2019-03-17T23:38:46.063Z,1.60
2019-03-17T23:42:04.872Z,1.60
2019-03-17T23:45:13.702Z,1.57
2019-03-17T23:48:22.272Z,2.00
2019-03-17T23:51:30.767Z,1.37
2019-03-17T23:54:39.369Z,1.50
2019-03-17T23:57:47.959Z,1.30
